Time;durP1;ratioP1;P1;durP2;ratioP2;P2;SDS_P1;SDS_P2;PMS_P1;PMS_P2;Temp;Humidity;BMP_temperature;BMP_pressure;BME280_temperature;BME280_humidity;BME280_pressure;Samples;Min_cycle;Max_cycle;Signal;HPM_P1;HPM_P2
2022/10/18 00:01:46;;;;;;;8.17;3.73;;;;;;;16.98;83.36;101259.31;4989454;28;20406;-76
2022/10/18 00:04:11;;;;;;;7.57;3.83;;;;;;;16.98;83.49;101260.16;4991180;28;20415;-76
2022/10/18 00:06:37;;;;;;;12.68;4.03;;;;;;;16.96;83.45;101262.31;4974678;28;20461;-76
2022/10/18 00:09:02;;;;;;;8.93;3.07;;;;;;;16.97;83.52;101254.94;4989918;28;20761;-76
2022/10/18 00:11:28;;;;;;;5.57;3.05;;;;;;;16.95;83.33;101247.00;4988599;28;20406;-76
2022/10/18 00:13:54;;;;;;;8.63;3.30;;;;;;;16.95;83.23;101254.38;4986615;28;20455;-76
2022/10/18 00:16:20;;;;;;;11.60;3.03;;;;;;;16.92;83.12;101252.19;4989064;28;20402;-76
2022/10/18 00:18:47;;;;;;;8.07;3.03;;;;;;;16.90;82.90;101259.81;4987368;28;20417;-75
2022/10/18 00:21:18;;;;;;;9.23;2.90;;;;;;;16.90;83.08;101255.16;4991607;28;20905;-76
2022/10/18 00:23:46;;;;;;;14.23;3.28;;;;;;;16.90;82.87;101262.56;4985216;28;20818;-76
2022/10/18 00:26:16;;;;;;;9.13;2.92;;;;;;;16.90;82.90;101259.81;4984351;28;20423;-76
2022/10/18 00:28:43;;;;;;;5.65;3.00;;;;;;;16.91;82.84;101259.56;4984776;28;20940;-76
2022/10/18 00:31:20;;;;;;;9.57;3.50;;;;;;;16.92;82.71;101254.91;4985735;28;20770;-76
2022/10/18 00:33:49;;;;;;;4.07;2.58;;;;;;;16.94;82.58;101260.94;4986643;28;20412;-76
2022/10/18 00:36:15;;;;;;;8.55;3.22;;;;;;;16.94;82.48;101264.50;4985330;28;20489;-76
2022/10/18 00:38:40;;;;;;;5.45;2.90;;;;;;;16.97;82.55;101268.63;4991361;28;20545;-76
2022/10/18 00:41:09;;;;;;;5.82;2.90;;;;;;;16.99;82.35;101263.72;4981023;28;20555;-76
2022/10/18 00:43:58;;;;;;;11.43;2.95;;;;;;;17.04;82.30;101269.19;4985785;28;20889;-76
2022/10/18 00:46:25;;;;;;;8.02;3.70;;;;;;;17.06;82.23;101264.25;4986694;28;20838;-76
2022/10/18 00:48:51;;;;;;;7.45;3.60;;;;;;;17.07;82.22;101265.91;4989101;28;20545;-76
2022/10/18 00:51:20;;;;;;;10.25;3.05;;;;;;;17.09;82.34;101261.03;4986293;28;20406;-75
2022/10/18 00:53:45;;;;;;;9.82;3.40;;;;;;;17.08;82.43;101254.72;4986494;28;20828;-76
2022/10/18 00:56:12;;;;;;;4.80;3.25;;;;;;;17.09;82.39;101258.28;4982116;28;20495;-76
2022/10/18 00:58:38;;;;;;;5.65;2.85;;;;;;;17.09;82.37;101258.28;4986259;28;20761;-75
2022/10/18 01:01:03;;;;;;;8.57;3.50;;;;;;;17.10;82.43;101252.50;4984428;28;20408;-76
2022/10/18 01:03:28;;;;;;;8.07;3.35;;;;;;;17.12;82.47;101263.22;4975412;28;20418;-76
2022/10/18 01:05:54;;;;;;;5.93;3.30;;;;;;;17.13;82.60;101267.59;4991014;28;20414;-76
2022/10/18 01:08:22;;;;;;;7.43;3.10;;;;;;;17.14;82.37;101269.25;4992062;28;20399;-76
2022/10/18 01:11:06;;;;;;;5.90;2.92;;;;;;;17.16;82.46;101264.31;4988299;28;20903;-76
2022/10/18 01:13:47;;;;;;;8.75;3.47;;;;;;;17.18;82.31;101264.88;4988964;28;20500;-76
2022/10/18 01:16:36;;;;;;;8.13;3.50;;;;;;;17.19;82.22;101258.28;4987331;28;20411;-76
2022/10/18 01:19:32;;;;;;;6.05;2.92;;;;;;;17.17;82.44;101255.00;4981430;28;20442;-76
2022/10/18 01:22:10;;;;;;;9.10;3.33;;;;;;;17.16;82.60;101245.13;4989312;28;20412;-76
2022/10/18 01:25:01;;;;;;;14.07;3.28;;;;;;;17.15;82.64;101243.50;4986190;28;20418;-76
2022/10/18 01:27:54;;;;;;;8.13;3.00;;;;;;;17.16;82.80;101241.59;4988010;28;20406;-76
2022/10/18 01:30:36;;;;;;;8.75;3.25;;;;;;;17.16;82.90;101244.34;4985563;28;20423;-75
2022/10/18 01:33:22;;;;;;;9.60;3.42;;;;;;;17.16;82.84;101242.41;4988418;28;20813;-76
2022/10/18 01:35:57;;;;;;;7.40;3.38;;;;;;;17.17;82.98;101243.22;4986895;28;20426;-76
2022/10/18 01:38:24;;;;;;;6.57;3.10;;;;;;;17.15;82.80;101232.56;4982845;28;20408;-76
2022/10/18 01:40:51;;;;;;;10.63;2.78;;;;;;;17.14;82.55;101239.13;4980620;28;20505;-76
2022/10/18 01:43:20;;;;;;;7.07;3.35;;;;;;;17.13;82.95;101237.44;4994938;28;20516;-76
2022/10/18 01:45:46;;;;;;;10.80;3.03;;;;;;;17.13;83.05;101241.03;4989502;28;20473;-75
2022/10/18 01:48:12;;;;;;;6.43;3.20;;;;;;;17.14;83.18;101244.59;4981294;28;20463;-76
2022/10/18 01:50:38;;;;;;;7.43;2.88;;;;;;;17.12;83.30;101244.03;4985919;28;20411;-76
2022/10/18 01:53:04;;;;;;;14.80;3.80;;;;;;;17.12;83.35;101233.09;4985605;28;20411;-76
2022/10/18 01:55:42;;;;;;;7.37;3.27;;;;;;;17.10;83.32;101235.25;4987210;28;20533;-76
2022/10/18 01:58:20;;;;;;;11.43;3.70;;;;;;;17.08;83.48;101232.81;4988410;28;20429;-76
2022/10/18 02:00:49;;;;;;;8.27;3.05;;;;;;;17.09;83.53;101231.69;4987536;28;20411;-75
2022/10/18 02:03:23;;;;;;;6.90;3.17;;;;;;;17.08;83.35;101229.25;4990489;28;20417;-76
2022/10/18 02:06:17;;;;;;;12.57;3.50;;;;;;;17.09;83.72;101228.16;4990334;28;20436;-76
2022/10/18 02:08:52;;;;;;;9.15;3.50;;;;;;;17.11;83.70;101224.06;4986872;28;20406;-75
2022/10/18 02:11:18;;;;;;;4.13;3.33;;;;;;;17.12;83.65;101222.94;4984998;28;20398;-75
2022/10/18 02:13:55;;;;;;;8.60;3.03;;;;;;;17.12;83.69;101216.66;4986344;28;20500;-76
2022/10/18 02:16:29;;;;;;;5.85;3.20;;;;;;;17.11;83.78;101220.47;4993924;28;20861;-76
2022/10/18 02:19:14;;;;;;;10.57;3.80;;;;;;;17.09;83.89;101215.25;4985674;28;20894;-76
2022/10/18 02:21:42;;;;;;;12.65;3.20;;;;;;;17.03;84.01;101212.78;4987252;28;20611;-76
2022/10/18 02:24:09;;;;;;;7.85;3.22;;;;;;;17.01;84.17;101207.59;4975047;28;20418;-76
2022/10/18 02:26:35;;;;;;;12.65;3.22;;;;;;;17.01;84.06;101209.50;4990458;28;20400;-76
2022/10/18 02:29:00;;;;;;;4.47;3.20;;;;;;;17.01;84.09;101206.75;4987833;28;20412;-75
2022/10/18 02:31:43;;;;;;;7.83;3.20;;;;;;;17.02;84.03;101205.69;4987841;28;20773;-76
2022/10/18 02:34:23;;;;;;;5.55;2.65;;;;;;;17.04;83.94;101200.75;4986502;28;20419;-75
2022/10/18 02:36:54;;;;;;;9.07;3.47;;;;;;;17.03;84.00;101202.66;4993472;28;20414;-75
2022/10/18 02:39:24;;;;;;;6.00;3.42;;;;;;;17.01;83.95;101199.38;4972379;28;20548;-76
2022/10/18 02:41:49;;;;;;;13.52;3.47;;;;;;;17.01;84.09;101190.31;4993110;28;20410;-76
2022/10/18 02:44:14;;;;;;;9.83;3.57;;;;;;;16.97;84.15;101201.00;4984199;28;20436;-76
2022/10/18 02:46:40;;;;;;;6.27;3.17;;;;;;;16.96;84.18;101193.03;4992280;28;20737;-76
2022/10/18 02:49:05;;;;;;;10.30;3.60;;;;;;;16.97;84.07;101209.22;4994350;28;20407;-76
2022/10/18 02:51:31;;;;;;;9.50;3.37;;;;;;;16.95;84.04;101207.84;4992008;28;20816;-76
2022/10/18 02:53:56;;;;;;;9.20;3.80;;;;;;;16.90;84.01;101200.41;4993905;28;20465;-76
2022/10/18 02:56:22;;;;;;;5.83;3.17;;;;;;;16.89;84.05;101206.97;4971186;28;20479;-76
2022/10/18 02:58:47;;;;;;;10.33;3.00;;;;;;;16.88;84.05;101202.63;4984781;28;20430;-76
2022/10/18 03:01:12;;;;;;;8.23;3.20;;;;;;;16.87;84.02;101211.09;4991184;28;20501;-76
2022/10/18 03:03:37;;;;;;;14.93;4.20;;;;;;;16.88;83.89;101210.81;4989159;28;20470;-76
2022/10/18 03:06:03;;;;;;;13.97;3.50;;;;;;;16.88;84.07;101210.81;4986705;28;20776;-76
2022/10/18 03:08:28;;;;;;;9.70;3.37;;;;;;;16.84;84.36;101217.91;4986750;28;20968;-76
2022/10/18 03:10:54;;;;;;;7.77;3.20;;;;;;;16.82;84.17;101214.63;4979638;28;20404;-76
2022/10/18 03:13:19;;;;;;;10.10;3.47;;;;;;;16.83;84.08;101216.25;4989386;28;20789;-76
2022/10/18 03:15:45;;;;;;;8.63;3.40;;;;;;;16.81;83.99;101209.41;4991276;28;20853;-76
2022/10/18 03:18:11;;;;;;;6.72;3.50;;;;;;;16.79;84.06;101208.88;4987906;28;20432;-76
2022/10/18 03:20:36;;;;;;;9.40;3.63;;;;;;;16.77;84.04;101209.13;4980190;28;20413;-76
2022/10/18 03:23:02;;;;;;;11.90;4.23;;;;;;;16.75;84.16;101211.31;4987985;28;20418;-76
2022/10/18 03:25:27;;;;;;;6.45;4.55;;;;;;;16.74;84.13;101214.31;4984187;28;20422;-76
2022/10/18 03:27:52;;;;;;;5.47;3.73;;;;;;;16.72;84.12;101222.81;4990406;28;20457;-76
2022/10/18 03:30:18;;;;;;;9.30;4.10;;;;;;;16.72;84.03;101232.94;4984537;28;20902;-76
2022/10/18 03:32:43;;;;;;;7.30;3.87;;;;;;;16.69;84.29;101228.81;4988678;28;20436;-76
2022/10/18 03:35:09;;;;;;;9.90;4.13;;;;;;;16.68;84.18;101229.91;4985300;28;21153;-76
2022/10/18 03:37:35;;;;;;;12.07;4.07;;;;;;;16.66;84.14;101231.25;4975047;28;20418;-75
2022/10/18 03:40:01;;;;;;;9.82;4.05;;;;;;;16.63;84.17;101232.59;4986465;28;20492;-75
2022/10/18 03:42:26;;;;;;;8.85;4.00;;;;;;;16.64;84.32;101236.16;4989181;28;20444;-76
2022/10/18 03:44:52;;;;;;;13.93;4.70;;;;;;;16.65;84.12;101235.91;4963393;28;20420;-76
2022/10/18 03:47:17;;;;;;;14.73;4.63;;;;;;;16.66;84.14;101242.22;4983747;28;20418;-76
2022/10/18 03:49:42;;;;;;;13.63;5.80;;;;;;;16.65;84.08;101241.38;4984018;28;20460;-76
2022/10/18 03:52:08;;;;;;;10.73;4.27;;;;;;;16.65;84.19;101243.28;4985255;28;20412;-76
2022/10/18 03:54:33;;;;;;;11.70;4.50;;;;;;;16.66;84.14;101243.03;4982435;28;20412;-76
2022/10/18 03:56:58;;;;;;;12.20;4.32;;;;;;;16.66;84.02;101251.25;4988637;28;20406;-76
2022/10/18 03:59:23;;;;;;;13.50;4.27;;;;;;;16.66;84.00;101250.41;4987384;28;20402;-76
2022/10/18 04:01:49;;;;;;;20.33;4.97;;;;;;;16.68;84.02;101256.44;4990017;28;20426;-77
2022/10/18 04:04:14;;;;;;;12.00;4.28;;;;;;;16.69;84.37;101255.34;4984314;28;20418;-76
2022/10/18 04:06:40;;;;;;;8.80;4.30;;;;;;;16.72;83.94;101254.81;4992456;28;20457;-76
2022/10/18 04:09:05;;;;;;;11.32;4.07;;;;;;;16.75;84.08;101254.28;4993043;28;20497;-76
2022/10/18 04:11:31;;;;;;;8.33;4.27;;;;;;;16.77;84.02;101255.66;4991423;28;20413;-76
2022/10/18 04:13:56;;;;;;;8.13;4.30;;;;;;;16.80;83.86;101255.13;4985006;28;20406;-76
2022/10/18 04:16:21;;;;;;;7.80;3.80;;;;;;;16.82;83.86;101260.34;4982973;28;20470;-76
2022/10/18 04:18:47;;;;;;;8.57;4.00;;;;;;;16.83;83.84;101249.13;4988613;28;20474;-75
2022/10/18 04:21:12;;;;;;;8.33;3.87;;;;;;;16.87;83.84;101257.63;4983886;28;20406;-76
2022/10/18 04:23:37;;;;;;;10.45;4.25;;;;;;;16.87;83.88;101260.34;4972459;28;20767;-76
2022/10/18 04:26:03;;;;;;;12.37;4.40;;;;;;;16.89;83.89;101266.41;4986188;28;20775;-75
2022/10/18 04:28:28;;;;;;;9.35;4.05;;;;;;;16.91;83.57;101259.56;4985793;28;20413;-76
2022/10/18 04:30:54;;;;;;;4.70;3.90;;;;;;;16.93;83.68;101257.38;4984758;28;20434;-75
2022/10/18 04:33:19;;;;;;;7.50;4.10;;;;;;;16.93;83.59;101256.53;4988722;28;20413;-76
2022/10/18 04:35:45;;;;;;;7.47;3.80;;;;;;;16.93;83.64;101254.63;4981145;28;20400;-76
2022/10/18 04:38:12;;;;;;;9.55;4.15;;;;;;;16.95;83.82;101254.38;4986873;28;20430;-76
2022/10/18 04:40:37;;;;;;;7.55;3.90;;;;;;;16.93;83.67;101257.38;4990386;28;20418;-76
2022/10/18 04:43:02;;;;;;;9.97;4.27;;;;;;;16.96;83.73;101269.69;4988961;28;20429;-76
2022/10/18 04:45:28;;;;;;;14.73;4.43;;;;;;;16.98;83.56;101256.59;4987123;28;20409;-76
2022/10/18 04:47:53;;;;;;;6.43;4.07;;;;;;;17.01;83.43;101258.78;4989903;28;20489;-76
2022/10/18 04:53:40;;;;;;;6.47;3.75;;;;;;;16.97;83.51;101261.22;4984810;28;20410;-82
2022/10/18 04:59:27;;;;;;;12.75;4.40;;;;;;;16.93;83.62;101268.31;4986873;28;20459;-75
2022/10/18 05:01:52;;;;;;;13.13;5.03;;;;;;;16.92;83.54;101268.59;4989335;28;20462;-76
2022/10/18 05:04:18;;;;;;;7.63;4.33;;;;;;;16.93;83.46;101265.59;4988849;28;20421;-75
2022/10/18 05:06:43;;;;;;;13.63;4.50;;;;;;;16.94;83.61;101258.19;4990987;28;20403;-76
2022/10/18 05:09:08;;;;;;;7.27;4.23;;;;;;;16.95;83.51;101257.13;4966583;28;20444;-76
2022/10/18 05:11:34;;;;;;;7.87;4.07;;;;;;;16.94;83.49;101259.03;4988511;28;20418;-76
2022/10/18 05:13:59;;;;;;;7.80;4.00;;;;;;;16.92;83.64;101258.50;4982106;28;20406;-76
2022/10/18 05:16:24;;;;;;;12.57;4.40;;;;;;;16.93;83.61;101264.75;4981804;28;20406;-76
2022/10/18 05:18:49;;;;;;;6.93;3.80;;;;;;;16.86;83.88;101259.53;4982146;28;20438;-76
2022/10/18 05:21:15;;;;;;;8.57;4.50;;;;;;;16.85;84.07;101274.34;4980905;28;20824;-76
2022/10/18 05:23:40;;;;;;;5.05;4.60;;;;;;;16.85;84.35;101268.84;4978435;28;20895;-75
2022/10/18 05:26:06;;;;;;;10.17;4.60;;;;;;;16.89;84.20;101264.47;4972969;28;20418;-75
2022/10/18 05:28:32;;;;;;;9.23;4.35;;;;;;;16.90;84.28;101265.28;4985778;28;20410;-76
2022/10/18 05:31:02;;;;;;;7.47;4.25;;;;;;;16.92;84.09;101265.88;4979471;28;20413;-76
2022/10/18 05:33:29;;;;;;;7.25;4.88;;;;;;;16.93;84.17;101265.59;4981841;28;20489;-77
2022/10/18 05:35:54;;;;;;;9.70;4.22;;;;;;;16.97;83.90;101269.44;4981415;28;20419;-75
2022/10/18 05:38:19;;;;;;;4.90;4.30;;;;;;;16.99;83.63;101270.00;4984288;28;20404;-75
2022/10/18 05:40:45;;;;;;;6.17;4.27;;;;;;;17.01;83.67;101264.25;4981875;28;20778;-74
2022/10/18 05:43:10;;;;;;;14.45;4.53;;;;;;;17.02;83.82;101266.75;4979254;28;20457;-75
2022/10/18 05:45:35;;;;;;;10.43;4.70;;;;;;;17.00;83.64;101265.34;4983404;28;20403;-75
2022/10/18 05:48:01;;;;;;;9.80;4.40;;;;;;;17.00;83.79;101266.16;4979653;28;20402;-76
2022/10/18 05:50:26;;;;;;;5.13;4.37;;;;;;;17.05;83.65;101266.22;4980808;28;20419;-76
2022/10/18 05:52:56;;;;;;;10.50;5.07;;;;;;;17.03;83.70;101257.41;4982636;28;20487;-75
2022/10/18 05:55:21;;;;;;;4.72;4.05;;;;;;;17.02;83.73;101261.28;4986107;28;20412;-75
2022/10/18 05:57:50;;;;;;;9.13;4.47;;;;;;;17.02;83.95;101260.44;4980957;28;20769;-75
2022/10/18 06:00:16;;;;;;;9.93;4.30;;;;;;;17.04;83.94;101256.34;4988854;28;20446;-75
2022/10/18 06:02:42;;;;;;;7.80;4.43;;;;;;;17.07;83.69;101260.44;4984093;28;20425;-75
2022/10/18 06:05:07;;;;;;;7.20;4.00;;;;;;;17.08;83.61;101262.94;4986350;28;20453;-75
2022/10/18 06:07:32;;;;;;;7.50;4.73;;;;;;;17.07;83.72;101261.28;4987284;28;20407;-75
2022/10/18 06:09:58;;;;;;;7.60;4.13;;;;;;;17.03;83.81;101267.53;4980141;28;20495;-75
2022/10/18 06:12:23;;;;;;;11.00;4.68;;;;;;;17.02;83.91;101265.91;4975700;28;20840;-75
2022/10/18 06:14:48;;;;;;;8.33;4.20;;;;;;;17.00;84.25;101266.16;4980023;28;20402;-75
2022/10/18 06:17:14;;;;;;;8.50;4.73;;;;;;;17.04;84.10;101267.28;4991610;28;20422;-75
2022/10/18 06:19:39;;;;;;;9.27;5.33;;;;;;;17.07;83.54;101269.50;4989695;28;20765;-75
2022/10/18 06:22:04;;;;;;;12.27;4.90;;;;;;;17.10;84.07;101271.69;4985797;28;20505;-75
2022/10/18 06:24:29;;;;;;;5.07;4.40;;;;;;;17.08;84.01;101276.63;4989043;28;20411;-75
2022/10/18 06:26:56;;;;;;;10.00;4.30;;;;;;;17.07;84.22;101280.44;4987093;28;20406;-75
2022/10/18 06:29:21;;;;;;;6.60;4.22;;;;;;;17.10;84.07;101263.47;4991271;28;20410;-75
2022/10/18 06:31:46;;;;;;;8.50;4.53;;;;;;;17.13;83.86;101281.28;4987733;28;20418;-75
2022/10/18 06:34:11;;;;;;;12.97;4.73;;;;;;;17.15;84.12;101287.31;4971444;28;20445;-75
2022/10/18 06:36:37;;;;;;;8.30;4.23;;;;;;;17.20;83.99;101291.97;4991554;28;20406;-75
2022/10/18 06:39:02;;;;;;;9.23;4.70;;;;;;;17.23;83.74;101294.19;4989415;28;20489;-75
2022/10/18 06:41:27;;;;;;;8.13;4.87;;;;;;;17.26;83.71;101289.00;4990099;28;20407;-75
2022/10/18 06:43:56;;;;;;;9.17;4.50;;;;;;;17.22;83.84;101304.34;4988236;28;20521;-75
2022/10/18 06:46:21;;;;;;;16.90;5.30;;;;;;;17.21;84.02;101312.81;4990470;28;20805;-75
2022/10/18 06:48:46;;;;;;;8.63;4.70;;;;;;;17.21;84.01;101308.16;4991205;28;20402;-75
2022/10/18 06:51:12;;;;;;;7.60;4.10;;;;;;;17.24;83.89;101312.28;4987869;28;20520;-75
2022/10/18 06:53:39;;;;;;;7.78;4.70;;;;;;;17.25;83.96;101312.03;4992651;28;20864;-75
2022/10/18 06:56:07;;;;;;;9.03;5.63;;;;;;;17.29;83.97;101310.38;4993262;28;20886;-75
2022/10/18 06:58:34;;;;;;;10.02;5.22;;;;;;;17.36;83.44;101307.38;4986206;28;20402;-75
2022/10/18 07:01:05;;;;;;;7.38;4.70;;;;;;;17.43;83.41;101314.25;4993800;28;20406;-75
2022/10/18 07:03:30;;;;;;;14.67;5.20;;;;;;;17.46;83.30;101327.41;4993494;28;20430;-75
2022/10/18 07:06:00;;;;;;;13.80;5.60;;;;;;;17.48;83.26;101325.25;4994947;28;20407;-75
2022/10/18 07:08:25;;;;;;;10.95;4.88;;;;;;;17.54;83.11;101326.91;4973821;28;20416;-75
2022/10/18 07:10:52;;;;;;;8.13;5.03;;;;;;;17.56;82.93;101337.63;4987118;28;20486;-75
2022/10/18 07:13:18;;;;;;;9.80;4.80;;;;;;;17.58;82.95;101343.66;4975496;28;20818;-75
2022/10/18 07:15:43;;;;;;;10.40;5.28;;;;;;;17.63;83.03;101349.16;4999878;28;20402;-75
2022/10/18 07:18:08;;;;;;;9.70;4.97;;;;;;;17.65;83.30;101341.47;4993911;28;20837;-75
2022/10/18 07:20:34;;;;;;;8.40;4.87;;;;;;;17.67;83.24;101344.78;4990225;28;20840;-75
2022/10/18 07:22:59;;;;;;;8.25;5.25;;;;;;;17.68;83.16;101351.09;4993713;28;20758;-75
2022/10/18 07:25:24;;;;;;;10.23;5.43;;;;;;;17.65;83.20;101357.13;4994187;28;20797;-75
2022/10/18 07:27:50;;;;;;;10.17;5.23;;;;;;;17.62;83.31;101362.03;4994374;28;20438;-75
2022/10/18 07:30:15;;;;;;;8.57;4.93;;;;;;;17.62;83.31;101363.94;4993044;28;20885;-75
2022/10/18 07:32:40;;;;;;;5.47;4.30;;;;;;;17.63;83.17;101371.09;4994148;28;20464;-75
2022/10/18 07:35:06;;;;;;;12.30;4.83;;;;;;;17.63;83.07;101374.66;4993945;28;20773;-75
2022/10/18 07:37:31;;;;;;;10.52;4.63;;;;;;;17.66;83.25;101384.25;4993944;28;20896;-75
2022/10/18 07:39:56;;;;;;;11.70;5.13;;;;;;;17.66;83.10;101392.47;4993265;28;20414;-75
2022/10/18 07:42:22;;;;;;;9.43;5.30;;;;;;;17.67;83.12;101388.66;4994111;28;20429;-75
2022/10/18 07:44:47;;;;;;;11.17;4.90;;;;;;;17.67;83.40;101388.66;4976374;28;20948;-76
2022/10/18 07:47:13;;;;;;;6.37;5.23;;;;;;;17.65;83.56;101390.00;4990754;28;20507;-76
2022/10/18 07:49:39;;;;;;;9.73;4.90;;;;;;;17.62;84.04;101394.94;4987846;28;20421;-75
2022/10/18 07:52:04;;;;;;;10.87;4.93;;;;;;;17.65;84.01;101390.00;4991303;28;20412;-75
2022/10/18 07:54:29;;;;;;;6.73;4.57;;;;;;;17.67;84.10;101396.03;4993351;28;20470;-75
2022/10/18 07:56:55;;;;;;;6.90;4.90;;;;;;;17.72;84.60;101387.81;4991503;28;20391;-75
2022/10/18 07:59:20;;;;;;;9.87;4.90;;;;;;;17.78;84.86;101395.81;4993464;28;20433;-81
2022/10/18 08:01:45;;;;;;;8.47;4.67;;;;;;;17.86;84.50;101398.00;4991522;28;20780;-75
2022/10/18 08:04:10;;;;;;;10.45;5.10;;;;;;;17.91;84.28;101400.78;4992217;28;20409;-75
2022/10/18 08:06:36;;;;;;;5.67;4.90;;;;;;;17.97;84.10;101393.38;4989193;28;21001;-74
2022/10/18 08:09:02;;;;;;;8.67;5.23;;;;;;;18.00;83.98;101395.59;4975150;28;21037;-74
2022/10/18 08:11:27;;;;;;;9.50;4.68;;;;;;;18.00;84.08;101401.06;4967272;28;20422;-75
2022/10/18 08:13:53;;;;;;;6.87;4.53;;;;;;;17.98;84.02;101395.84;4992702;28;20897;-74
2022/10/18 08:16:24;;;;;;;7.28;4.68;;;;;;;18.08;84.14;101397.78;4993539;28;20402;-75
2022/10/18 08:18:49;;;;;;;9.75;4.50;;;;;;;18.25;83.84;101390.13;4984252;28;20406;-75
2022/10/18 08:21:16;;;;;;;10.15;4.97;;;;;;;18.48;83.51;101392.31;4983359;28;20419;-75
2022/10/18 08:23:43;;;;;;;5.85;4.50;;;;;;;18.63;83.00;101388.81;4989557;28;20777;-75
2022/10/18 08:26:11;;;;;;;8.03;4.73;;;;;;;18.67;82.86;101395.41;4989706;28;20406;-75
2022/10/18 08:28:37;;;;;;;7.38;4.63;;;;;;;18.63;82.70;101392.38;4974921;28;20746;-74
2022/10/18 08:31:08;;;;;;;6.27;4.43;;;;;;;18.55;82.94;101392.09;4990806;28;20417;-75
2022/10/18 08:33:35;;;;;;;9.40;4.70;;;;;;;18.50;83.18;101389.34;4990891;28;20413;-74
2022/10/18 08:36:04;;;;;;;10.52;4.95;;;;;;;18.50;83.20;101400.34;4993164;28;20414;-74
2022/10/18 08:38:31;;;;;;;8.38;4.80;;;;;;;18.54;82.84;101395.94;4987283;28;20507;-75
2022/10/18 08:40:59;;;;;;;13.52;5.35;;;;;;;18.60;83.05;101392.94;4986198;28;20442;-75
2022/10/18 08:43:39;;;;;;;11.90;5.03;;;;;;;18.63;83.29;101392.38;4991559;28;20429;-75
2022/10/18 08:46:10;;;;;;;5.78;4.57;;;;;;;18.71;83.23;101396.47;4990915;28;20410;-74
2022/10/18 08:48:42;;;;;;;15.13;5.40;;;;;;;18.73;83.29;101399.78;4990289;28;20402;-75
2022/10/18 08:51:29;;;;;;;8.98;4.40;;;;;;;18.75;83.51;101402.22;4990628;28;20509;-75
2022/10/18 08:54:36;;;;;;;7.40;4.05;;;;;;;19.04;83.04;101397.78;4991004;28;20406;-76
2022/10/18 08:57:09;;;;;;;4.23;3.13;;;;;;;19.30;81.86;101398.56;4967761;28;20422;-75
2022/10/18 08:59:39;;;;;;;5.32;3.30;;;;;;;19.38;81.17;101396.03;4992086;28;20406;-75
2022/10/18 09:02:14;;;;;;;9.25;3.33;;;;;;;19.31;80.86;101398.25;4973402;28;20500;-75
2022/10/18 09:04:48;;;;;;;4.00;2.72;;;;;;;19.27;80.44;101402.66;4972768;28;20837;-75
2022/10/18 09:07:33;;;;;;;3.55;3.15;;;;;;;19.27;80.52;101410.09;4988837;28;20418;-75
2022/10/18 09:10:01;;;;;;;3.22;2.90;;;;;;;19.22;80.68;101408.19;4983490;28;20446;-75
2022/10/18 09:12:57;;;;;;;8.05;3.13;;;;;;;19.23;80.52;101406.28;4995123;28;20460;-75
2022/10/18 09:15:29;;;;;;;7.65;2.97;;;;;;;19.22;80.47;101405.44;4990757;28;20797;-75
2022/10/18 09:18:31;;;;;;;5.93;2.95;;;;;;;19.27;80.17;101408.16;4998159;28;20420;-75
2022/10/18 09:20:59;;;;;;;4.45;2.85;;;;;;;19.35;79.84;101406.78;4991937;28;20769;-75
2022/10/18 09:23:33;;;;;;;9.90;3.60;;;;;;;19.40;79.47;101404.00;4989482;28;20422;-75
2022/10/18 09:26:09;;;;;;;5.03;2.75;;;;;;;19.41;79.30;101414.75;4992006;28;20409;-75
2022/10/18 09:28:44;;;;;;;6.95;2.70;;;;;;;19.39;78.86;101416.09;4989831;28;20416;-75
2022/10/18 09:31:34;;;;;;;3.13;2.93;;;;;;;19.40;78.92;101414.97;4991952;28;20495;-75
2022/10/18 09:34:24;;;;;;;6.40;2.70;;;;;;;19.43;78.59;101417.22;4991695;28;20510;-75
2022/10/18 09:36:51;;;;;;;6.97;3.10;;;;;;;19.35;78.50;101421.34;4986709;28;20422;-75
2022/10/18 09:39:30;;;;;;;7.60;3.43;;;;;;;19.44;78.74;101416.09;4987339;28;20786;-74
2022/10/18 09:42:02;;;;;;;4.60;2.42;;;;;;;19.63;77.88;101420.69;4990526;28;20402;-75
2022/10/18 09:44:36;;;;;;;3.33;2.53;;;;;;;19.82;77.29;101414.59;4988328;28;20420;-75
2022/10/18 09:47:11;;;;;;;3.42;2.53;;;;;;;19.95;76.56;101414.78;4984598;28;20446;-75
2022/10/18 09:49:41;;;;;;;7.30;3.17;;;;;;;19.98;76.37;101416.97;4991610;28;20881;-75
2022/10/18 09:52:15;;;;;;;7.20;2.95;;;;;;;21.23;74.01;101409.91;4990213;28;20457;-75
2022/10/18 09:55:04;;;;;;;5.05;3.08;;;;;;;23.70;66.01;101422.53;5002575;28;20884;-75
2022/10/18 09:57:39;;;;;;;6.25;2.33;;;;;;;24.41;63.25;101420.91;4967241;28;20430;-75
2022/10/18 10:00:13;;;;;;;7.87;3.10;;;;;;;25.00;61.28;101420.53;4990734;28;20869;-75
2022/10/18 10:02:38;;;;;;;3.45;2.38;;;;;;;25.78;58.57;101427.25;4990888;28;20531;-75
2022/10/18 10:05:11;;;;;;;7.35;2.50;;;;;;;26.59;55.70;101433.00;4990458;28;20893;-75
2022/10/18 10:07:42;;;;;;;3.17;2.33;;;;;;;27.28;53.29;101444.81;4974315;28;20407;-75
2022/10/18 10:10:30;;;;;;;7.43;2.60;;;;;;;27.12;53.64;101427.88;4991332;28;20409;-75
2022/10/18 10:13:15;;;;;;;8.68;2.20;;;;;;;27.89;51.52;101428.66;4973465;28;20407;-75
2022/10/18 10:16:00;;;;;;;3.78;2.38;;;;;;;27.55;51.20;101432.44;4987083;28;20405;-75
2022/10/18 10:18:32;;;;;;;6.43;2.00;;;;;;;27.36;52.42;101430.06;4990050;28;20762;-75
2022/10/18 10:21:00;;;;;;;3.88;2.28;;;;;;;28.46;49.21;101431.66;4970601;28;20463;-75
2022/10/18 10:23:29;;;;;;;4.20;2.60;;;;;;;28.40;48.23;101433.03;4985282;28;20917;-75
2022/10/18 10:25:57;;;;;;;3.40;2.35;;;;;;;26.47;52.54;101432.88;4991390;28;20479;-75
2022/10/18 10:28:29;;;;;;;6.20;3.00;;;;;;;24.76;57.44;101431.13;4992570;28;20414;-75
2022/10/18 10:31:23;;;;;;;6.68;2.92;;;;;;;23.63;61.40;101417.41;4991406;28;20396;-75
2022/10/18 10:34:04;;;;;;;10.70;2.63;;;;;;;23.17;63.07;101417.47;4991385;28;20406;-75
2022/10/18 10:36:31;;;;;;;7.32;2.90;;;;;;;22.96;64.66;101421.72;4988286;28;20446;-75
2022/10/18 10:39:04;;;;;;;3.47;2.35;;;;;;;22.89;65.09;101428.78;4991682;28;20406;-75
2022/10/18 10:41:30;;;;;;;5.93;2.53;;;;;;;22.84;65.66;101431.66;4994790;28;20436;-75
2022/10/18 10:43:55;;;;;;;7.80;2.88;;;;;;;22.94;65.51;101432.28;4994408;28;20430;-74
2022/10/18 10:46:22;;;;;;;4.23;2.40;;;;;;;22.93;65.32;101438.94;4991664;28;20491;-74
2022/10/18 10:48:56;;;;;;;8.07;2.47;;;;;;;22.66;65.86;101436.91;4992070;28;20422;-75
2022/10/18 10:51:30;;;;;;;6.10;2.67;;;;;;;22.42;66.79;101429.84;4993761;28;20403;-74
2022/10/18 10:54:01;;;;;;;6.53;2.80;;;;;;;22.27;67.50;101427.28;4986145;28;20410;-75
2022/10/18 10:56:30;;;;;;;4.43;2.83;;;;;;;22.14;67.78;101418.66;4992272;28;20418;-75
2022/10/18 10:59:05;;;;;;;5.82;2.78;;;;;;;22.14;67.82;101420.59;4994689;28;20414;-74
2022/10/18 11:01:32;;;;;;;2.53;2.33;;;;;;;22.18;67.83;101427.16;4994150;28;20420;-74
2022/10/18 11:04:20;;;;;;;2.40;2.20;;;;;;;22.18;67.89;101427.16;4994687;28;20542;-75
2022/10/18 11:06:54;;;;;;;3.50;2.40;;;;;;;22.17;67.83;101426.34;4989761;28;20406;-75
2022/10/18 11:10:05;;;;;;;3.58;2.33;;;;;;;22.22;67.90;101430.97;4999147;28;20476;-75
2022/10/18 11:12:52;;;;;;;3.58;2.42;;;;;;;22.31;68.12;101428.34;4992874;28;20409;-75
2022/10/18 11:15:25;;;;;;;4.43;2.75;;;;;;;22.44;67.46;101428.41;4976633;28;20491;-76
2022/10/18 11:18:09;;;;;;;5.60;2.35;;;;;;;22.42;67.85;101429.84;4974691;28;20897;-75
2022/10/18 11:20:40;;;;;;;7.38;2.60;;;;;;;22.36;68.13;101434.59;4987750;28;20444;-75
2022/10/18 11:23:13;;;;;;;4.30;2.22;;;;;;;22.35;68.32;101434.91;4992094;28;20488;-75
2022/10/18 11:25:57;;;;;;;4.13;2.10;;;;;;;22.36;68.12;101428.28;4975716;28;20912;-75
2022/10/18 11:28:28;;;;;;;5.00;1.87;;;;;;;22.37;68.06;101418.84;4985355;28;20584;-75
2022/10/18 11:31:13;;;;;;;4.32;1.77;;;;;;;22.29;68.30;101422.31;4994425;28;20413;-75
2022/10/18 11:34:07;;;;;;;4.90;2.00;;;;;;;22.22;68.42;101425.44;4991453;28;20757;-75
2022/10/18 11:36:52;;;;;;;4.22;1.70;;;;;;;22.18;68.71;101414.19;4987466;28;20406;-77
2022/10/18 11:39:33;;;;;;;3.53;2.30;;;;;;;22.24;68.61;101421.25;4986935;28;20916;-78
2022/10/18 11:42:18;;;;;;;2.85;2.20;;;;;;;22.40;68.31;101408.03;4991050;28;20445;-75
2022/10/18 11:45:25;;;;;;;6.65;2.05;;;;;;;22.60;67.73;101407.69;4973628;28;20418;-77